Urania — PAFG — position and weather

sailwx.info

Track history (hours):
 
Tides and Currents Weather Stations Pressure Air Temp Water Temp Dewpoint Dewpoint Depression Visibility Wind Speed Wind Dir Waves Ship Positions

Urania (Netherlands)

Flagship of the Royal Netherlands Naval College.

Last reported at 2017-Oct-17 06:49 UTC. Time now 2017-Oct-22 19:20 UTC.
Position N 52°58' E 004°47'.

Length 27 m; draft 2.6 m.

Type: Sailing vessel. MMSI: 245804000.

Date/timePositionNaut miles runAvg speedWind from/ knotsBaromVisibWave heightAir tempDewpointWater temp
2017-Oct-17 06:49N 52°58' E 004°47'0 0.0
2017-Oct-17 06:25N 52°58' E 004°47'0 0.0
2017-Oct-17 05:58N 52°58' E 004°47'0 0.0
2017-Oct-17 05:25N 52°58' E 004°47'0 0.0
2017-Oct-17 04:58N 52°58' E 004°47'0 0.0
2017-Oct-17 04:28N 52°58' E 004°47'0 0.0
2017-Oct-17 03:55N 52°58' E 004°47'0 0.0
2017-Oct-17 03:16N 52°58' E 004°47'0 0.0
2017-Oct-17 02:55N 52°58' E 004°47'0 0.0
2017-Oct-17 02:28N 52°58' E 004°47'0 0.0
2017-Oct-17 01:58N 52°58' E 004°47'0 0.0
2017-Oct-17 01:28N 52°58' E 004°47'0 0.0
2017-Oct-17 00:58N 52°58' E 004°47'0 0.0
2017-Oct-17 00:28N 52°58' E 004°47'0 0.0
2017-Oct-16 23:49N 52°58' E 004°47'0 0.0
2017-Oct-16 22:37N 52°58' E 004°47'0 0.0
2017-Oct-16 22:25N 52°58' E 004°47'0 0.0
2017-Oct-16 21:55N 52°58' E 004°47'0 0.0
2017-Oct-16 21:07N 52°58' E 004°47'0 0.0
2017-Oct-16 20:58N 52°58' E 004°47'0 0.0
2017-Oct-16 20:25N 52°58' E 004°47'0 0.0
2017-Oct-16 19:58N 52°58' E 004°47'0 0.0
2017-Oct-16 19:28N 52°58' E 004°47'0 0.0
2017-Oct-16 18:55N 52°58' E 004°47'0 0.0
2017-Oct-16 18:28N 52°58' E 004°47'0 0.0
2017-Oct-16 17:55N 52°58' E 004°47'0 0.0
2017-Oct-16 17:16N 52°58' E 004°47'0 0.0
2017-Oct-16 16:58N 52°58' E 004°47'0 0.0
2017-Oct-16 16:28N 52°58' E 004°47'0 0.0
2017-Oct-16 15:58N 52°58' E 004°47'0 0.0
2017-Oct-16 15:28N 52°58' E 004°47'0 0.0
2017-Oct-16 14:58N 52°58' E 004°47'0 0.0
2017-Oct-16 13:55N 52°58' E 004°47'0 0.0
2017-Oct-16 13:25N 52°58' E 004°47'0 0.0
2017-Oct-16 12:58N 52°58' E 004°47'0 0.0
2017-Oct-16 12:30N 52°58' E 004°47'0 0.0
2017-Oct-16 12:00N 52°58' E 004°47'1 2.9
2017-Oct-16 11:30N 52°58' E 004°49'2 4.8
2017-Oct-16 11:00N 52°60' E 004°52'3 6.6
2017-Oct-16 10:30N 52°59' E 004°58'4 7.3
2017-Oct-16 10:00N 52°56' E 005°02'2 3.9
2017-Oct-16 09:30N 52°55' E 005°04'3 6.7
2017-Oct-16 09:00N 52°53' E 005°08'3 6.8
2017-Oct-16 08:30N 52°50' E 005°12'3 6.8
2017-Oct-16 08:00N 52°48' E 005°16'3 6.8
2017-Oct-16 07:30N 52°45' E 005°19'3 5.3
2017-Oct-16 07:00N 52°42' E 005°18'0 0.1
2017-Oct-16 06:31N 52°42' E 005°18'0 0.0
2017-Oct-16 06:00N 52°42' E 005°18'0 0.0
2017-Oct-16 05:30N 52°42' E 005°18'0 0.0
2017-Oct-16 05:00N 52°42' E 005°18'0 0.0
2017-Oct-16 04:30N 52°42' E 005°18'0 0.0
2017-Oct-16 04:00N 52°42' E 005°18'0 0.0
2017-Oct-16 03:30N 52°42' E 005°18'0 0.0
2017-Oct-16 03:00N 52°42' E 005°18'0 0.0
2017-Oct-16 02:30N 52°42' E 005°18'0 0.0
2017-Oct-16 02:00N 52°42' E 005°18'0 0.0
2017-Oct-16 01:30N 52°42' E 005°18'0 0.0
2017-Oct-16 01:00N 52°42' E 005°18'0 0.0
2017-Oct-16 00:30N 52°42' E 005°18'0 0.0
2017-Oct-16 00:00N 52°42' E 005°18'0 0.0
2017-Oct-15 23:30N 52°42' E 005°18'0 0.0
2017-Oct-15 23:00N 52°42' E 005°18'0 0.0
2017-Oct-15 22:30N 52°42' E 005°18'0 0.0
2017-Oct-15 22:00N 52°42' E 005°18'0 0.0
2017-Oct-15 21:30N 52°42' E 005°18'0 0.0
2017-Oct-15 21:00N 52°42' E 005°18'0 0.0
2017-Oct-15 20:30N 52°42' E 005°18'0 0.0
2017-Oct-15 20:00N 52°42' E 005°18'0 0.0
2017-Oct-15 19:30N 52°42' E 005°18'0 0.0
2017-Oct-15 19:00N 52°42' E 005°18'0 0.0
2017-Oct-15 18:30N 52°42' E 005°18'0 0.0
2017-Oct-15 18:00N 52°42' E 005°18'0 0.6
2017-Oct-15 17:30N 52°42' E 005°18'3 5.2
2017-Oct-15 17:01N 52°40' E 005°15'4 7.1
2017-Oct-15 16:31N 52°36' E 005°14'4 7.7
2017-Oct-15 16:00N 52°32' E 005°13'4 8.2
2017-Oct-15 15:31N 52°28' E 005°13'4 7.6
2017-Oct-15 15:01N 52°25' E 005°09'7 7.3
2017-Oct-15 14:01N 52°23' E 004°58'0 0.6
2017-Oct-15 13:30N 52°23' E 004°57'1 1.9
2017-Oct-15 13:00N 52°23' E 004°56'0 0.0
2017-Oct-15 12:30N 52°23' E 004°56'1 1.6
2017-Oct-15 12:01N 52°23' E 004°55'3 5.5
2017-Oct-15 11:30N 52°25' E 004°52'3 6.5
2017-Oct-15 11:00N 52°26' E 004°46'3 6.4
2017-Oct-15 10:31N 52°27' E 004°42'3 3.2
2017-Oct-15 09:30N 52°28' E 004°37'1 1.8
2017-Oct-15 09:01N 52°28' E 004°35'0 0.4
2017-Oct-15 08:00N 52°28' E 004°35'0 0.5
2017-Oct-15 07:30N 52°27' E 004°35'0 0.0
2017-Oct-15 07:00N 52°27' E 004°35'0 0.0
2017-Oct-15 06:30N 52°27' E 004°35'0 0.0
2017-Oct-15 06:00N 52°27' E 004°35'0 0.0
2017-Oct-15 05:30N 52°27' E 004°35'0 0.0
2017-Oct-15 05:00N 52°27' E 004°35'0 0.0
2017-Oct-15 04:30N 52°27' E 004°35'0 0.0
2017-Oct-15 03:57N 52°27' E 004°35'0 0.0
2017-Oct-15 03:24N 52°27' E 004°35'0 0.0
2017-Oct-15 03:00N 52°27' E 004°35'0 0.0
2017-Oct-15 02:30N 52°27' E 004°35'0 0.0
2017-Oct-15 01:54N 52°27' E 004°35'0 0.0
2017-Oct-15 01:30N 52°27' E 004°35'0 0.0
2017-Oct-15 01:00N 52°27' E 004°35'0 0.0
2017-Oct-15 00:30N 52°27' E 004°35'0 0.0
2017-Oct-15 00:00N 52°27' E 004°35'0 0.0
2017-Oct-14 23:30N 52°27' E 004°35'0 0.0
2017-Oct-14 23:00N 52°27' E 004°35'0 0.0
2017-Oct-14 22:30N 52°27' E 004°35'0 0.0
2017-Oct-14 22:00N 52°27' E 004°35'0 0.0
2017-Oct-14 21:30N 52°27' E 004°35'0 0.0
2017-Oct-14 20:59N 52°27' E 004°35'0 0.0
2017-Oct-14 20:23N 52°27' E 004°35'0 0.0
2017-Oct-14 19:59N 52°27' E 004°35'0 0.0
2017-Oct-14 19:23N 52°27' E 004°35'0 0.0
2017-Oct-14 18:59N 52°27' E 004°35'0 0.0
2017-Oct-14 18:26N 52°27' E 004°35'0 0.0
2017-Oct-14 17:59N 52°27' E 004°35'0 0.0
2017-Oct-14 17:29N 52°27' E 004°35'0 0.0
2017-Oct-14 16:59N 52°27' E 004°35'0 0.0
2017-Oct-14 16:29N 52°27' E 004°35'0 0.0
2017-Oct-14 15:59N 52°27' E 004°35'0 0.0
2017-Oct-14 15:29N 52°27' E 004°35'0 0.0
2017-Oct-14 14:59N 52°27' E 004°35'0 0.0
2017-Oct-14 14:29N 52°27' E 004°35'0 0.0
2017-Oct-14 13:59N 52°27' E 004°35'0 0.0
2017-Oct-14 13:30N 52°27' E 004°35'0 0.6
2017-Oct-14 13:00N 52°28' E 004°35'2 4.6
2017-Oct-14 12:30N 52°29' E 004°31'2 4.9
2017-Oct-14 12:01N 52°30' E 004°29'2 4.2
2017-Oct-14 11:30N 52°29' E 004°32'3 6.3
2017-Oct-14 11:01N 52°32' E 004°28'3 6.6
2017-Oct-14 10:30N 52°34' E 004°25'2 4.8
2017-Oct-14 10:00N 52°33' E 004°28'1 2.0
2017-Oct-14 09:30N 52°32' E 004°27'4 7.1
2017-Oct-14 09:00N 52°29' E 004°31'3 5.3
2017-Oct-14 08:30N 52°28' E 004°35'0 0.6
2017-Oct-14 07:58N 52°27' E 004°35'0 0.0
2017-Oct-14 07:28N 52°27' E 004°35'0 0.0
2017-Oct-14 06:58N 52°27' E 004°35'0 0.0
2017-Oct-14 06:28N 52°27' E 004°35'0 0.0
2017-Oct-14 05:58N 52°27' E 004°35'0 0.0
2017-Oct-14 05:28N 52°27' E 004°35'0 0.0
2017-Oct-14 04:55N 52°27' E 004°35'0 0.0
2017-Oct-14 04:28N 52°27' E 004°35'0 0.0
2017-Oct-14 03:58N 52°27' E 004°35'0 0.0
2017-Oct-14 03:28N 52°27' E 004°35'0 0.0
2017-Oct-14 02:58N 52°27' E 004°35'0 0.0
2017-Oct-14 02:28N 52°27' E 004°35'0 0.0
2017-Oct-14 01:58N 52°27' E 004°35'0 0.0
2017-Oct-14 01:25N 52°27' E 004°35'0 0.0
2017-Oct-14 00:58N 52°27' E 004°35'0 0.0
2017-Oct-14 00:28N 52°27' E 004°35'0 0.0
2017-Oct-13 23:58N 52°27' E 004°35'0 0.0
2017-Oct-13 23:28N 52°27' E 004°35'0 0.0
2017-Oct-13 22:58N 52°27' E 004°35'0 0.0
2017-Oct-13 22:28N 52°27' E 004°35'0 0.0
2017-Oct-13 21:58N 52°27' E 004°35'0 0.0
2017-Oct-13 21:28N 52°27' E 004°35'0 0.0
2017-Oct-13 20:58N 52°27' E 004°35'0 0.1
2017-Oct-13 20:30N 52°27' E 004°35'2 3.3
2017-Oct-13 20:01N 52°28' E 004°32'3 5.9
2017-Oct-13 19:30N 52°27' E 004°28'2 3.8
2017-Oct-13 19:00N 52°26' E 004°26'4 7.9
2017-Oct-13 18:30N 52°24' E 004°20'4 8.3
2017-Oct-13 18:00N 52°22' E 004°14'4 8.2
2017-Oct-13 17:30N 52°22' E 004°07'4 8.1
2017-Oct-13 17:00N 52°21' E 004°01'2 3.0
2017-Oct-13 16:30N 52°20' E 004°00'5 9.5
2017-Oct-13 16:00N 52°17' E 004°07'5 9.7
2017-Oct-13 15:30N 52°15' E 004°13'3 5.7
2017-Oct-13 15:00N 52°13' E 004°17'5 9.2
2017-Oct-13 14:30N 52°14' E 004°10'5 9.5
2017-Oct-13 14:00N 52°16' E 004°02'4 8.3
2017-Oct-13 13:30N 52°17' E 003°56'5 9.3
2017-Oct-13 13:00N 52°14' E 004°02'5 9.7
2017-Oct-13 12:30N 52°10' E 004°07'5 9.5
2017-Oct-13 12:00N 52°07' E 004°13'1 1.8
2017-Oct-13 11:30N 52°07' E 004°15'2 3.1
2017-Oct-13 11:00N 52°06' E 004°16'0 0.3
2017-Oct-13 10:29N 52°06' E 004°16'0 0.0
2017-Oct-13 09:59N 52°06' E 004°16'0 0.0
2017-Oct-13 09:29N 52°06' E 004°16'0 0.0
2017-Oct-13 08:59N 52°06' E 004°16'0 0.0
2017-Oct-13 08:29N 52°06' E 004°16'0 0.0
2017-Oct-13 07:59N 52°06' E 004°16'0 0.0
2017-Oct-13 07:26N 52°06' E 004°16'0 0.0
2017-Oct-13 06:59N 52°06' E 004°16'0 0.0
2017-Oct-13 06:29N 52°06' E 004°16'0 0.0
2017-Oct-13 05:56N 52°06' E 004°16'0 0.0
2017-Oct-13 05:29N 52°06' E 004°16'0 0.0
2017-Oct-13 04:53N 52°06' E 004°16'0 0.0
2017-Oct-13 04:29N 52°06' E 004°16'0 0.0
2017-Oct-13 03:59N 52°06' E 004°16'0 0.0
2017-Oct-13 03:29N 52°06' E 004°16'0 0.0
2017-Oct-13 02:59N 52°06' E 004°16'0 0.0
2017-Oct-13 02:29N 52°06' E 004°16'0 0.0
2017-Oct-13 01:59N 52°06' E 004°16'0 0.0
2017-Oct-13 01:29N 52°06' E 004°16'0 0.0
2017-Oct-13 00:58N 52°06' E 004°16'0 0.0
2017-Oct-13 00:25N 52°06' E 004°16'0 0.0
2017-Oct-12 23:58N 52°06' E 004°16'0 0.0
2017-Oct-12 23:28N 52°06' E 004°16'0 0.0
2017-Oct-12 22:58N 52°06' E 004°16'0 0.0
2017-Oct-12 22:28N 52°06' E 004°16'0 0.0
2017-Oct-12 21:58N 52°06' E 004°16'0 0.0
2017-Oct-12 21:28N 52°06' E 004°16'0 0.0
2017-Oct-12 20:58N 52°06' E 004°16'0 0.0
2017-Oct-12 20:28N 52°06' E 004°16'0 0.0
2017-Oct-12 19:58N 52°06' E 004°16'0 0.0
2017-Oct-12 19:22N 52°06' E 004°16'0 0.0
2017-Oct-12 18:58N 52°06' E 004°16'0 0.0
2017-Oct-12 18:28N 52°06' E 004°16'0 0.0
2017-Oct-12 17:58N 52°06' E 004°16'0 0.0
2017-Oct-12 17:28N 52°06' E 004°16'0 0.0
2017-Oct-12 16:58N 52°06' E 004°16'0 0.0
2017-Oct-12 16:28N 52°06' E 004°16'0 0.0
2017-Oct-12 15:58N 52°06' E 004°16'0 0.0
2017-Oct-12 15:28N 52°06' E 004°16'0 0.0
2017-Oct-12 14:58N 52°06' E 004°16'0 0.0
2017-Oct-12 14:25N 52°06' E 004°16'0 0.0
2017-Oct-12 14:00N 52°06' E 004°16'1 2.1
2017-Oct-12 13:30N 52°06' E 004°15'1 2.5
2017-Oct-12 13:00N 52°07' E 004°14'4 9.0
2017-Oct-12 12:30N 52°12' E 004°10'4 8.1
2017-Oct-12 12:00N 52°15' E 004°07'4 8.2
2017-Oct-12 11:30N 52°11' E 004°05'4 8.7
2017-Oct-12 11:00N 52°07' E 004°04'4 8.0
2017-Oct-12 10:30N 52°03' E 004°03'2 3.1
2017-Oct-12 10:00N 52°01' E 004°02'1 1.7
2017-Oct-12 09:30N 52°00' E 004°02'2 3.6
2017-Oct-12 09:00N 51°59' E 004°04'3 5.2
2017-Oct-12 08:30N 51°58' E 004°08'3 5.8
2017-Oct-12 08:00N 51°56' E 004°12'3 5.5
2017-Oct-12 07:30N 51°55' E 004°15'2 4.3
2017-Oct-12 07:00N 51°54' E 004°18'3 5.2
2017-Oct-12 06:30N 51°54' E 004°23'2 4.2
2017-Oct-12 06:00N 51°54' E 004°26'2 3.5
2017-Oct-12 05:30N 51°54' E 004°29'0 0.2
2017-Oct-12 04:59N 51°54' E 004°29'0 0.0
2017-Oct-12 04:29N 51°54' E 004°29'0 0.0
2017-Oct-12 03:59N 51°54' E 004°29'0 0.0
2017-Oct-12 03:29N 51°54' E 004°29'0 0.0
2017-Oct-12 02:59N 51°54' E 004°29'0 0.0
2017-Oct-12 02:29N 51°54' E 004°29'0 0.0
2017-Oct-12 01:59N 51°54' E 004°29'0 0.0
2017-Oct-12 01:29N 51°54' E 004°29'0 0.0
2017-Oct-12 00:59N 51°54' E 004°29'0 0.0
2017-Oct-12 00:29N 51°54' E 004°29'0 0.0
2017-Oct-11 23:59N 51°54' E 004°29'0 0.0
2017-Oct-11 23:29N 51°54' E 004°29'0 0.0
2017-Oct-11 22:59N 51°54' E 004°29'0 0.0
2017-Oct-11 22:29N 51°54' E 004°29'0 0.0
2017-Oct-11 21:59N 51°54' E 004°29'0 0.0
2017-Oct-11 21:29N 51°54' E 004°29'0 0.0
2017-Oct-11 20:59N 51°54' E 004°29'0 0.0
2017-Oct-11 20:29N 51°54' E 004°29'0 0.0
2017-Oct-11 19:59N 51°54' E 004°29'0 0.0
2017-Oct-11 19:29N 51°54' E 004°29'0 0.0
2017-Oct-11 18:59N 51°54' E 004°29'0 0.0
2017-Oct-11 18:29N 51°54' E 004°29'0 0.0
2017-Oct-11 17:59N 51°54' E 004°29'0 0.0
2017-Oct-11 17:29N 51°54' E 004°29'0 0.0
2017-Oct-11 16:59N 51°54' E 004°29'0 0.0
2017-Oct-10 23:59N 51°54' E 004°29'0 0.0
2017-Oct-10 23:29N 51°54' E 004°29'0 0.0
2017-Oct-10 22:58N 51°54' E 004°29'0 0.0
2017-Oct-10 22:28N 51°54' E 004°29'0 0.0
2017-Oct-10 21:58N 51°54' E 004°29'0 0.0
2017-Oct-10 21:28N 51°54' E 004°29'0 0.0
2017-Oct-10 20:58N 51°54' E 004°29'0 0.0
2017-Oct-10 20:28N 51°54' E 004°29'0 0.0
2017-Oct-10 19:58N 51°54' E 004°29'0 0.0
2017-Oct-10 19:28N 51°54' E 004°29'0 0.0
2017-Oct-10 18:58N 51°54' E 004°29'0 0.0
2017-Oct-10 18:28N 51°54' E 004°29'0 0.0
2017-Oct-10 17:58N 51°54' E 004°29'0 0.0
2017-Oct-10 17:28N 51°54' E 004°29'0 0.0
2017-Oct-10 16:58N 51°54' E 004°29'0 0.0
2017-Oct-10 16:28N 51°54' E 004°29'0 0.0
2017-Oct-10 15:58N 51°54' E 004°29'0 0.0
2017-Oct-10 15:28N 51°54' E 004°29'0 0.0
2017-Oct-10 14:58N 51°54' E 004°29'0 0.0
2017-Oct-10 13:58N 51°54' E 004°29'0 0.0
2017-Oct-10 13:28N 51°54' E 004°29'0 0.0
2017-Oct-10 12:58N 51°54' E 004°29'0 0.0
2017-Oct-10 12:28N 51°54' E 004°29'0 0.0
2017-Oct-10 11:58N 51°54' E 004°29'0 0.0
2017-Oct-10 11:28N 51°54' E 004°29'0 0.0
2017-Oct-10 10:58N 51°54' E 004°29'0 0.0
2017-Oct-10 10:28N 51°54' E 004°29'0 0.0
2017-Oct-10 09:58N 51°54' E 004°29'0 0.0
2017-Oct-10 09:28N 51°54' E 004°29'0 0.0
2017-Oct-10 08:58N 51°54' E 004°29'0 0.0
2017-Oct-10 08:28N 51°54' E 004°29'0 0.0
2017-Oct-10 07:58N 51°54' E 004°29'0 0.0
2017-Oct-10 07:28N 51°54' E 004°29'0 0.0
2017-Oct-10 06:58N 51°54' E 004°29'0 0.0
2017-Oct-10 06:28N 51°54' E 004°29'0 0.0
2017-Oct-10 05:58N 51°54' E 004°29'0 0.0
2017-Oct-10 05:28N 51°54' E 004°29'0 0.0
2017-Oct-10 04:58N 51°54' E 004°29'0 0.0
2017-Oct-10 04:28N 51°54' E 004°29'0 0.0
2017-Oct-10 03:58N 51°54' E 004°29'0 0.0
2017-Oct-10 03:28N 51°54' E 004°29'0 0.0
2017-Oct-10 02:58N 51°54' E 004°29'0 0.0
2017-Oct-10 02:28N 51°54' E 004°29'0 0.0
2017-Oct-10 01:58N 51°54' E 004°29'0 0.0
2017-Oct-10 01:28N 51°54' E 004°29'0 0.0
2017-Oct-10 00:58N 51°54' E 004°29'0 0.0
2017-Oct-10 00:28N 51°54' E 004°29'0 0.0
2017-Oct-09 23:58N 51°54' E 004°29'0 0.0
2017-Oct-09 23:28N 51°54' E 004°29'0 0.0
2017-Oct-09 22:58N 51°54' E 004°29'0 0.0
2017-Oct-09 22:28N 51°54' E 004°29'0 0.0
2017-Oct-09 21:58N 51°54' E 004°29'0 0.0
2017-Oct-09 21:28N 51°54' E 004°29'0 0.0
2017-Oct-09 20:58N 51°54' E 004°29'0 0.0
2017-Oct-09 20:28N 51°54' E 004°29'0 0.0
2017-Oct-09 19:58N 51°54' E 004°29'0 0.0
2017-Oct-09 19:28N 51°54' E 004°29'0 0.0
2017-Oct-09 18:58N 51°54' E 004°29'0 0.0
2017-Oct-09 18:28N 51°54' E 004°29'0 0.0
2017-Oct-09 17:58N 51°54' E 004°29'0 0.0
2017-Oct-09 17:28N 51°54' E 004°29'0 0.0
2017-Oct-09 16:58N 51°54' E 004°29'0 0.0
2017-Oct-09 16:28N 51°54' E 004°29'0 0.0
2017-Oct-09 15:58N 51°54' E 004°29'0 0.0
2017-Oct-09 15:28N 51°54' E 004°29'0 0.0
2017-Oct-09 14:58N 51°54' E 004°29'0 0.0
2017-Oct-09 14:28N 51°54' E 004°29'0 0.0
2017-Oct-09 13:58N 51°54' E 004°29'0 0.0
2017-Oct-09 13:28N 51°54' E 004°29'0 0.0
2017-Oct-09 12:58N 51°54' E 004°29'0 0.0
2017-Oct-09 12:28N 51°54' E 004°29'0 0.0
2017-Oct-09 11:58N 51°54' E 004°29'0 0.0
2017-Oct-09 11:28N 51°54' E 004°29'0 0.0
2017-Oct-09 10:58N 51°54' E 004°29'0 0.0
2017-Oct-09 10:28N 51°54' E 004°29'0 0.0
2017-Oct-09 09:58N 51°54' E 004°29'0 0.0
2017-Oct-09 09:31N 51°54' E 004°29'0 0.0
2017-Oct-09 08:58N 51°54' E 004°29'0 0.0
2017-Oct-09 08:31N 51°54' E 004°29'0 0.0
2017-Oct-09 08:01N 51°54' E 004°29'0 0.0
2017-Oct-09 07:30N 51°54' E 004°29'0 0.0
2017-Oct-09 07:00N 51°54' E 004°29'0 0.0
2017-Oct-09 06:30N 51°54' E 004°29'0 0.0
2017-Oct-09 06:00N 51°54' E 004°29'0 0.0
2017-Oct-09 05:30N 51°54' E 004°29'0 0.0
2017-Oct-09 05:00N 51°54' E 004°29'0 0.0
2017-Oct-09 04:30N 51°54' E 004°29'0 0.0
2017-Oct-09 04:00N 51°54' E 004°29'0 0.0
2017-Oct-09 03:30N 51°54' E 004°29'0 0.0
2017-Oct-09 03:00N 51°54' E 004°29'0 0.0
2017-Oct-09 02:30N 51°54' E 004°29'0 0.0
2017-Oct-09 02:00N 51°54' E 004°29'0 0.0
2017-Oct-09 01:30N 51°54' E 004°29'0 0.0
2017-Oct-09 01:00N 51°54' E 004°29'0 0.0
2017-Oct-09 00:30N 51°54' E 004°29'0 0.0
2017-Oct-09 00:00N 51°54' E 004°29'0 0.0
2017-Oct-08 23:30N 51°54' E 004°29'0 0.0
2017-Oct-08 23:00N 51°54' E 004°29'0 0.0
2017-Oct-08 22:30N 51°54' E 004°29'0 0.0
2017-Oct-08 22:00N 51°54' E 004°29'0 0.0
2017-Oct-08 21:30N 51°54' E 004°29'0 0.0
2017-Oct-08 21:00N 51°54' E 004°29'0 0.0
2017-Oct-08 20:30N 51°54' E 004°29'0 0.0
2017-Oct-08 20:00N 51°54' E 004°29'0 0.0
2017-Oct-08 19:30N 51°54' E 004°29'0 0.0
2017-Oct-08 19:00N 51°54' E 004°29'0 0.0
2017-Oct-08 18:30N 51°54' E 004°29'0 0.0
2017-Oct-08 18:00N 51°54' E 004°29'0 0.0
2017-Oct-08 17:30N 51°54' E 004°29'0 0.0
2017-Oct-08 17:00N 51°54' E 004°29'0 0.0
2017-Oct-08 16:30N 51°54' E 004°29'0 0.0
2017-Oct-08 16:00N 51°54' E 004°29'0 0.0
2017-Oct-08 15:30N 51°54' E 004°29'0 0.0
2017-Oct-08 15:00N 51°54' E 004°29'0 0.0
2017-Oct-08 14:30N 51°54' E 004°29'0 0.0
2017-Oct-08 14:00N 51°54' E 004°29'0 0.0
2017-Oct-08 13:30N 51°54' E 004°29'0 0.0
2017-Oct-08 13:00N 51°54' E 004°29'0 0.0
2017-Oct-08 12:30N 51°54' E 004°29'0 0.0
2017-Oct-08 12:00N 51°54' E 004°29'0 0.0
2017-Oct-08 11:30N 51°54' E 004°29'0 0.0
2017-Oct-08 11:00N 51°54' E 004°29'0 0.0
2017-Oct-08 10:30N 51°54' E 004°29'0 0.0
2017-Oct-08 10:00N 51°54' E 004°29'0 0.0
2017-Oct-08 09:30N 51°54' E 004°29'0 0.0
2017-Oct-08 09:00N 51°54' E 004°29'0 0.0
2017-Oct-08 08:30N 51°54' E 004°29'0 0.0
2017-Oct-08 08:00N 51°54' E 004°29'0 0.0
2017-Oct-08 07:30N 51°54' E 004°29'0 0.0
2017-Oct-08 07:00N 51°54' E 004°29'0 0.0
2017-Oct-08 06:30N 51°54' E 004°29'0 0.0
2017-Oct-08 06:00N 51°54' E 004°29'0 0.0
2017-Oct-08 05:30N 51°54' E 004°29'0 0.0
2017-Oct-08 05:00N 51°54' E 004°29'0 0.0
2017-Oct-08 04:30N 51°54' E 004°29'0 0.0
2017-Oct-08 04:00N 51°54' E 004°29'0 0.0
2017-Oct-08 03:30N 51°54' E 004°29'0 0.0
2017-Oct-08 03:00N 51°54' E 004°29'0 0.0
2017-Oct-08 02:30N 51°54' E 004°29'0 0.0
2017-Oct-08 02:00N 51°54' E 004°29'0 0.0
2017-Oct-08 01:30N 51°54' E 004°29'0 0.0
2017-Oct-08 01:00N 51°54' E 004°29'0 0.0
2017-Oct-08 00:30N 51°54' E 004°29'0 0.0
2017-Oct-08 00:00N 51°54' E 004°29'0 0.0
2017-Oct-07 23:30N 51°54' E 004°29'0 0.0
2017-Oct-07 23:00N 51°54' E 004°29'0 0.0
2017-Oct-07 22:30N 51°54' E 004°29'0 0.0
2017-Oct-07 22:00N 51°54' E 004°29'0 0.0
2017-Oct-07 21:30N 51°54' E 004°29'0 0.0
2017-Oct-07 21:00N 51°54' E 004°29'0 0.0
2017-Oct-07 20:30N 51°54' E 004°29'0 0.0
2017-Oct-07 20:00N 51°54' E 004°29'0 0.0
2017-Oct-07 19:27N 51°54' E 004°29'0 0.0
2017-Oct-07 19:00N 51°54' E 004°29'0 0.0
2017-Oct-07 18:30N 51°54' E 004°29'0 0.0
2017-Oct-07 18:00N 51°54' E 004°29'0 0.0
2017-Oct-07 17:29N 51°54' E 004°29'0 0.0
2017-Oct-07 16:59N 51°54' E 004°29'0 0.0
2017-Oct-07 16:29N 51°54' E 004°29'0 0.0
2017-Oct-07 15:59N 51°54' E 004°29'0 0.0
2017-Oct-07 15:29N 51°54' E 004°29'0 0.0
2017-Oct-07 14:59N 51°54' E 004°29'0 0.0
2017-Oct-07 14:29N 51°54' E 004°29'0 0.0
2017-Oct-07 13:59N 51°54' E 004°29'0 0.0
2017-Oct-07 13:29N 51°54' E 004°29'0 0.0
2017-Oct-07 12:59N 51°54' E 004°29'0 0.0
2017-Oct-07 12:29N 51°54' E 004°29'0 0.0
2017-Oct-07 11:59N 51°54' E 004°29'0 0.0
2017-Oct-07 11:29N 51°54' E 004°29'0 0.0
2017-Oct-07 10:59N 51°54' E 004°29'0 0.0
2017-Oct-07 10:29N 51°54' E 004°29'0 0.0
2017-Oct-07 09:59N 51°54' E 004°29'0 0.0
2017-Oct-07 09:29N 51°54' E 004°29'0 0.0
2017-Oct-07 08:59N 51°54' E 004°29'0 0.0
2017-Oct-07 08:29N 51°54' E 004°29'0 0.0
2017-Oct-07 07:59N 51°54' E 004°29'0 0.0
2017-Oct-07 07:29N 51°54' E 004°29'0 0.0
2017-Oct-07 06:59N 51°54' E 004°29'  
Track history (hours):
 
Tides and Currents Weather Stations Pressure Air Temp Water Temp Dewpoint Dewpoint Depression Visibility Wind Speed Wind Dir Waves Ship Positions

Urania (Netherlands)

Flagship of the Royal Netherlands Naval College.

Last reported at 2017-Oct-17 06:49 UTC. Time now 2017-Oct-22 19:20 UTC.
Position N 52°58' E 004°47'.

Length 27 m; draft 2.6 m.

Type: Sailing vessel. MMSI: 245804000.

Date/timePositionNaut miles runAvg speedWind from/ knotsBaromVisibWave heightAir tempDewpointWater temp
2017-Oct-17 06:49N 52°58' E 004°47'0 0.0
2017-Oct-17 06:25N 52°58' E 004°47'0 0.0
2017-Oct-17 05:58N 52°58' E 004°47'0 0.0
2017-Oct-17 05:25N 52°58' E 004°47'0 0.0
2017-Oct-17 04:58N 52°58' E 004°47'0 0.0
2017-Oct-17 04:28N 52°58' E 004°47'0 0.0
2017-Oct-17 03:55N 52°58' E 004°47'0 0.0
2017-Oct-17 03:16N 52°58' E 004°47'0 0.0
2017-Oct-17 02:55N 52°58' E 004°47'0 0.0
2017-Oct-17 02:28N 52°58' E 004°47'0 0.0
2017-Oct-17 01:58N 52°58' E 004°47'0 0.0
2017-Oct-17 01:28N 52°58' E 004°47'0 0.0
2017-Oct-17 00:58N 52°58' E 004°47'0 0.0
2017-Oct-17 00:28N 52°58' E 004°47'0 0.0
2017-Oct-16 23:49N 52°58' E 004°47'0 0.0
2017-Oct-16 22:37N 52°58' E 004°47'0 0.0
2017-Oct-16 22:25N 52°58' E 004°47'0 0.0
2017-Oct-16 21:55N 52°58' E 004°47'0 0.0
2017-Oct-16 21:07N 52°58' E 004°47'0 0.0
2017-Oct-16 20:58N 52°58' E 004°47'0 0.0
2017-Oct-16 20:25N 52°58' E 004°47'0 0.0
2017-Oct-16 19:58N 52°58' E 004°47'0 0.0
2017-Oct-16 19:28N 52°58' E 004°47'0 0.0
2017-Oct-16 18:55N 52°58' E 004°47'0 0.0
2017-Oct-16 18:28N 52°58' E 004°47'0 0.0
2017-Oct-16 17:55N 52°58' E 004°47'0 0.0
2017-Oct-16 17:16N 52°58' E 004°47'0 0.0
2017-Oct-16 16:58N 52°58' E 004°47'0 0.0
2017-Oct-16 16:28N 52°58' E 004°47'0 0.0
2017-Oct-16 15:58N 52°58' E 004°47'0 0.0
2017-Oct-16 15:28N 52°58' E 004°47'0 0.0
2017-Oct-16 14:58N 52°58' E 004°47'0 0.0
2017-Oct-16 13:55N 52°58' E 004°47'0 0.0
2017-Oct-16 13:25N 52°58' E 004°47'0 0.0
2017-Oct-16 12:58N 52°58' E 004°47'0 0.0
2017-Oct-16 12:30N 52°58' E 004°47'0 0.0
2017-Oct-16 12:00N 52°58' E 004°47'1 2.9
2017-Oct-16 11:30N 52°58' E 004°49'2 4.8
2017-Oct-16 11:00N 52°60' E 004°52'3 6.6
2017-Oct-16 10:30N 52°59' E 004°58'4 7.3
2017-Oct-16 10:00N 52°56' E 005°02'2 3.9
2017-Oct-16 09:30N 52°55' E 005°04'3 6.7
2017-Oct-16 09:00N 52°53' E 005°08'3 6.8
2017-Oct-16 08:30N 52°50' E 005°12'3 6.8
2017-Oct-16 08:00N 52°48' E 005°16'3 6.8
2017-Oct-16 07:30N 52°45' E 005°19'3 5.3
2017-Oct-16 07:00N 52°42' E 005°18'0 0.1
2017-Oct-16 06:31N 52°42' E 005°18'0 0.0
2017-Oct-16 06:00N 52°42' E 005°18'0 0.0
2017-Oct-16 05:30N 52°42' E 005°18'0 0.0
2017-Oct-16 05:00N 52°42' E 005°18'0 0.0
2017-Oct-16 04:30N 52°42' E 005°18'0 0.0
2017-Oct-16 04:00N 52°42' E 005°18'0 0.0
2017-Oct-16 03:30N 52°42' E 005°18'0 0.0
2017-Oct-16 03:00N 52°42' E 005°18'0 0.0
2017-Oct-16 02:30N 52°42' E 005°18'0 0.0
2017-Oct-16 02:00N 52°42' E 005°18'0 0.0
2017-Oct-16 01:30N 52°42' E 005°18'0 0.0
2017-Oct-16 01:00N 52°42' E 005°18'0 0.0
2017-Oct-16 00:30N 52°42' E 005°18'0 0.0
2017-Oct-16 00:00N 52°42' E 005°18'0 0.0
2017-Oct-15 23:30N 52°42' E 005°18'0 0.0
2017-Oct-15 23:00N 52°42' E 005°18'0 0.0
2017-Oct-15 22:30N 52°42' E 005°18'0 0.0
2017-Oct-15 22:00N 52°42' E 005°18'0 0.0
2017-Oct-15 21:30N 52°42' E 005°18'0 0.0
2017-Oct-15 21:00N 52°42' E 005°18'0 0.0
2017-Oct-15 20:30N 52°42' E 005°18'0 0.0
2017-Oct-15 20:00N 52°42' E 005°18'0 0.0
2017-Oct-15 19:30N 52°42' E 005°18'0 0.0
2017-Oct-15 19:00N 52°42' E 005°18'0 0.0
2017-Oct-15 18:30N 52°42' E 005°18'0 0.0
2017-Oct-15 18:00N 52°42' E 005°18'0 0.6
2017-Oct-15 17:30N 52°42' E 005°18'3 5.2
2017-Oct-15 17:01N 52°40' E 005°15'4 7.1
2017-Oct-15 16:31N 52°36' E 005°14'4 7.7
2017-Oct-15 16:00N 52°32' E 005°13'4 8.2
2017-Oct-15 15:31N 52°28' E 005°13'4 7.6
2017-Oct-15 15:01N 52°25' E 005°09'7 7.3
2017-Oct-15 14:01N 52°23' E 004°58'0 0.6
2017-Oct-15 13:30N 52°23' E 004°57'1 1.9
2017-Oct-15 13:00N 52°23' E 004°56'0 0.0
2017-Oct-15 12:30N 52°23' E 004°56'1 1.6
2017-Oct-15 12:01N 52°23' E 004°55'3 5.5
2017-Oct-15 11:30N 52°25' E 004°52'3 6.5
2017-Oct-15 11:00N 52°26' E 004°46'3 6.4
2017-Oct-15 10:31N 52°27' E 004°42'3 3.2
2017-Oct-15 09:30N 52°28' E 004°37'1 1.8
2017-Oct-15 09:01N 52°28' E 004°35'0 0.4
2017-Oct-15 08:00N 52°28' E 004°35'0 0.5
2017-Oct-15 07:30N 52°27' E 004°35'0 0.0
2017-Oct-15 07:00N 52°27' E 004°35'0 0.0
2017-Oct-15 06:30N 52°27' E 004°35'0 0.0
2017-Oct-15 06:00N 52°27' E 004°35'0 0.0
2017-Oct-15 05:30N 52°27' E 004°35'0 0.0
2017-Oct-15 05:00N 52°27' E 004°35'0 0.0
2017-Oct-15 04:30N 52°27' E 004°35'0 0.0
2017-Oct-15 03:57N 52°27' E 004°35'0 0.0
2017-Oct-15 03:24N 52°27' E 004°35'0 0.0
2017-Oct-15 03:00N 52°27' E 004°35'0 0.0
2017-Oct-15 02:30N 52°27' E 004°35'0 0.0
2017-Oct-15 01:54N 52°27' E 004°35'0 0.0
2017-Oct-15 01:30N 52°27' E 004°35'0 0.0
2017-Oct-15 01:00N 52°27' E 004°35'0 0.0
2017-Oct-15 00:30N 52°27' E 004°35'0 0.0
2017-Oct-15 00:00N 52°27' E 004°35'0 0.0
2017-Oct-14 23:30N 52°27' E 004°35'0 0.0
2017-Oct-14 23:00N 52°27' E 004°35'0 0.0
2017-Oct-14 22:30N 52°27' E 004°35'0 0.0
2017-Oct-14 22:00N 52°27' E 004°35'0 0.0
2017-Oct-14 21:30N 52°27' E 004°35'0 0.0
2017-Oct-14 20:59N 52°27' E 004°35'0 0.0
2017-Oct-14 20:23N 52°27' E 004°35'0 0.0
2017-Oct-14 19:59N 52°27' E 004°35'0 0.0
2017-Oct-14 19:23N 52°27' E 004°35'0 0.0
2017-Oct-14 18:59N 52°27' E 004°35'0 0.0
2017-Oct-14 18:26N 52°27' E 004°35'0 0.0
2017-Oct-14 17:59N 52°27' E 004°35'0 0.0
2017-Oct-14 17:29N 52°27' E 004°35'0 0.0
2017-Oct-14 16:59N 52°27' E 004°35'0 0.0
2017-Oct-14 16:29N 52°27' E 004°35'0 0.0
2017-Oct-14 15:59N 52°27' E 004°35'0 0.0
2017-Oct-14 15:29N 52°27' E 004°35'0 0.0
2017-Oct-14 14:59N 52°27' E 004°35'0 0.0
2017-Oct-14 14:29N 52°27' E 004°35'0 0.0
2017-Oct-14 13:59N 52°27' E 004°35'0 0.0
2017-Oct-14 13:30N 52°27' E 004°35'0 0.6
2017-Oct-14 13:00N 52°28' E 004°35'2 4.6
2017-Oct-14 12:30N 52°29' E 004°31'2 4.9
2017-Oct-14 12:01N 52°30' E 004°29'2 4.2
2017-Oct-14 11:30N 52°29' E 004°32'3 6.3
2017-Oct-14 11:01N 52°32' E 004°28'3 6.6
2017-Oct-14 10:30N 52°34' E 004°25'2 4.8
2017-Oct-14 10:00N 52°33' E 004°28'1 2.0
2017-Oct-14 09:30N 52°32' E 004°27'4 7.1
2017-Oct-14 09:00N 52°29' E 004°31'3 5.3
2017-Oct-14 08:30N 52°28' E 004°35'0 0.6
2017-Oct-14 07:58N 52°27' E 004°35'0 0.0
2017-Oct-14 07:28N 52°27' E 004°35'0 0.0
2017-Oct-14 06:58N 52°27' E 004°35'0 0.0
2017-Oct-14 06:28N 52°27' E 004°35'0 0.0
2017-Oct-14 05:58N 52°27' E 004°35'0 0.0
2017-Oct-14 05:28N 52°27' E 004°35'0 0.0
2017-Oct-14 04:55N 52°27' E 004°35'0 0.0
2017-Oct-14 04:28N 52°27' E 004°35'0 0.0
2017-Oct-14 03:58N 52°27' E 004°35'0 0.0
2017-Oct-14 03:28N 52°27' E 004°35'0 0.0
2017-Oct-14 02:58N 52°27' E 004°35'0 0.0
2017-Oct-14 02:28N 52°27' E 004°35'0 0.0
2017-Oct-14 01:58N 52°27' E 004°35'0 0.0
2017-Oct-14 01:25N 52°27' E 004°35'0 0.0
2017-Oct-14 00:58N 52°27' E 004°35'0 0.0
2017-Oct-14 00:28N 52°27' E 004°35'0 0.0
2017-Oct-13 23:58N 52°27' E 004°35'0 0.0
2017-Oct-13 23:28N 52°27' E 004°35'0 0.0
2017-Oct-13 22:58N 52°27' E 004°35'0 0.0
2017-Oct-13 22:28N 52°27' E 004°35'0 0.0
2017-Oct-13 21:58N 52°27' E 004°35'0 0.0
2017-Oct-13 21:28N 52°27' E 004°35'0 0.0
2017-Oct-13 20:58N 52°27' E 004°35'0 0.1
2017-Oct-13 20:30N 52°27' E 004°35'2 3.3
2017-Oct-13 20:01N 52°28' E 004°32'3 5.9
2017-Oct-13 19:30N 52°27' E 004°28'2 3.8
2017-Oct-13 19:00N 52°26' E 004°26'4 7.9
2017-Oct-13 18:30N 52°24' E 004°20'4 8.3
2017-Oct-13 18:00N 52°22' E 004°14'4 8.2
2017-Oct-13 17:30N 52°22' E 004°07'4 8.1
2017-Oct-13 17:00N 52°21' E 004°01'2 3.0
2017-Oct-13 16:30N 52°20' E 004°00'5 9.5
2017-Oct-13 16:00N 52°17' E 004°07'5 9.7
2017-Oct-13 15:30N 52°15' E 004°13'3 5.7
2017-Oct-13 15:00N 52°13' E 004°17'5 9.2
2017-Oct-13 14:30N 52°14' E 004°10'5 9.5
2017-Oct-13 14:00N 52°16' E 004°02'4 8.3
2017-Oct-13 13:30N 52°17' E 003°56'5 9.3
2017-Oct-13 13:00N 52°14' E 004°02'5 9.7
2017-Oct-13 12:30N 52°10' E 004°07'5 9.5
2017-Oct-13 12:00N 52°07' E 004°13'1 1.8
2017-Oct-13 11:30N 52°07' E 004°15'2 3.1
2017-Oct-13 11:00N 52°06' E 004°16'0 0.3
2017-Oct-13 10:29N 52°06' E 004°16'0 0.0
2017-Oct-13 09:59N 52°06' E 004°16'0 0.0
2017-Oct-13 09:29N 52°06' E 004°16'0 0.0
2017-Oct-13 08:59N 52°06' E 004°16'0 0.0
2017-Oct-13 08:29N 52°06' E 004°16'0 0.0
2017-Oct-13 07:59N 52°06' E 004°16'0 0.0
2017-Oct-13 07:26N 52°06' E 004°16'0 0.0
2017-Oct-13 06:59N 52°06' E 004°16'0 0.0
2017-Oct-13 06:29N 52°06' E 004°16'0 0.0
2017-Oct-13 05:56N 52°06' E 004°16'0 0.0
2017-Oct-13 05:29N 52°06' E 004°16'0 0.0
2017-Oct-13 04:53N 52°06' E 004°16'0 0.0
2017-Oct-13 04:29N 52°06' E 004°16'0 0.0
2017-Oct-13 03:59N 52°06' E 004°16'0 0.0
2017-Oct-13 03:29N 52°06' E 004°16'0 0.0
2017-Oct-13 02:59N 52°06' E 004°16'0 0.0
2017-Oct-13 02:29N 52°06' E 004°16'0 0.0
2017-Oct-13 01:59N 52°06' E 004°16'0 0.0
2017-Oct-13 01:29N 52°06' E 004°16'0 0.0
2017-Oct-13 00:58N 52°06' E 004°16'0 0.0
2017-Oct-13 00:25N 52°06' E 004°16'0 0.0
2017-Oct-12 23:58N 52°06' E 004°16'0 0.0
2017-Oct-12 23:28N 52°06' E 004°16'0 0.0
2017-Oct-12 22:58N 52°06' E 004°16'0 0.0
2017-Oct-12 22:28N 52°06' E 004°16'0 0.0
2017-Oct-12 21:58N 52°06' E 004°16'0 0.0
2017-Oct-12 21:28N 52°06' E 004°16'0 0.0
2017-Oct-12 20:58N 52°06' E 004°16'0 0.0
2017-Oct-12 20:28N 52°06' E 004°16'0 0.0
2017-Oct-12 19:58N 52°06' E 004°16'0 0.0
2017-Oct-12 19:22N 52°06' E 004°16'0 0.0
2017-Oct-12 18:58N 52°06' E 004°16'0 0.0
2017-Oct-12 18:28N 52°06' E 004°16'0 0.0
2017-Oct-12 17:58N 52°06' E 004°16'0 0.0
2017-Oct-12 17:28N 52°06' E 004°16'0 0.0
2017-Oct-12 16:58N 52°06' E 004°16'0 0.0
2017-Oct-12 16:28N 52°06' E 004°16'0 0.0
2017-Oct-12 15:58N 52°06' E 004°16'0 0.0
2017-Oct-12 15:28N 52°06' E 004°16'0 0.0
2017-Oct-12 14:58N 52°06' E 004°16'0 0.0
2017-Oct-12 14:25N 52°06' E 004°16'0 0.0
2017-Oct-12 14:00N 52°06' E 004°16'1 2.1
2017-Oct-12 13:30N 52°06' E 004°15'1 2.5
2017-Oct-12 13:00N 52°07' E 004°14'4 9.0
2017-Oct-12 12:30N 52°12' E 004°10'4 8.1
2017-Oct-12 12:00N 52°15' E 004°07'4 8.2
2017-Oct-12 11:30N 52°11' E 004°05'4 8.7
2017-Oct-12 11:00N 52°07' E 004°04'4 8.0
2017-Oct-12 10:30N 52°03' E 004°03'2 3.1
2017-Oct-12 10:00N 52°01' E 004°02'1 1.7
2017-Oct-12 09:30N 52°00' E 004°02'2 3.6
2017-Oct-12 09:00N 51°59' E 004°04'3 5.2
2017-Oct-12 08:30N 51°58' E 004°08'3 5.8
2017-Oct-12 08:00N 51°56' E 004°12'3 5.5
2017-Oct-12 07:30N 51°55' E 004°15'2 4.3
2017-Oct-12 07:00N 51°54' E 004°18'3 5.2
2017-Oct-12 06:30N 51°54' E 004°23'2 4.2
2017-Oct-12 06:00N 51°54' E 004°26'2 3.5
2017-Oct-12 05:30N 51°54' E 004°29'0 0.2
2017-Oct-12 04:59N 51°54' E 004°29'0 0.0
2017-Oct-12 04:29N 51°54' E 004°29'0 0.0
2017-Oct-12 03:59N 51°54' E 004°29'0 0.0
2017-Oct-12 03:29N 51°54' E 004°29'0 0.0
2017-Oct-12 02:59N 51°54' E 004°29'0 0.0
2017-Oct-12 02:29N 51°54' E 004°29'0 0.0
2017-Oct-12 01:59N 51°54' E 004°29'0 0.0
2017-Oct-12 01:29N 51°54' E 004°29'0 0.0
2017-Oct-12 00:59N 51°54' E 004°29'0 0.0
2017-Oct-12 00:29N 51°54' E 004°29'0 0.0
2017-Oct-11 23:59N 51°54' E 004°29'0 0.0
2017-Oct-11 23:29N 51°54' E 004°29'0 0.0
2017-Oct-11 22:59N 51°54' E 004°29'0 0.0
2017-Oct-11 22:29N 51°54' E 004°29'0 0.0
2017-Oct-11 21:59N 51°54' E 004°29'0 0.0
2017-Oct-11 21:29N 51°54' E 004°29'0 0.0
2017-Oct-11 20:59N 51°54' E 004°29'0 0.0
2017-Oct-11 20:29N 51°54' E 004°29'0 0.0
2017-Oct-11 19:59N 51°54' E 004°29'0 0.0
2017-Oct-11 19:29N 51°54' E 004°29'0 0.0
2017-Oct-11 18:59N 51°54' E 004°29'0 0.0
2017-Oct-11 18:29N 51°54' E 004°29'0 0.0
2017-Oct-11 17:59N 51°54' E 004°29'0 0.0
2017-Oct-11 17:29N 51°54' E 004°29'0 0.0
2017-Oct-11 16:59N 51°54' E 004°29'0 0.0
2017-Oct-10 23:59N 51°54' E 004°29'0 0.0
2017-Oct-10 23:29N 51°54' E 004°29'0 0.0
2017-Oct-10 22:58N 51°54' E 004°29'0 0.0
2017-Oct-10 22:28N 51°54' E 004°29'0 0.0
2017-Oct-10 21:58N 51°54' E 004°29'0 0.0
2017-Oct-10 21:28N 51°54' E 004°29'0 0.0
2017-Oct-10 20:58N 51°54' E 004°29'0 0.0
2017-Oct-10 20:28N 51°54' E 004°29'0 0.0
2017-Oct-10 19:58N 51°54' E 004°29'0 0.0
2017-Oct-10 19:28N 51°54' E 004°29'0 0.0
2017-Oct-10 18:58N 51°54' E 004°29'0 0.0
2017-Oct-10 18:28N 51°54' E 004°29'0 0.0
2017-Oct-10 17:58N 51°54' E 004°29'0 0.0
2017-Oct-10 17:28N 51°54' E 004°29'0 0.0
2017-Oct-10 16:58N 51°54' E 004°29'0 0.0
2017-Oct-10 16:28N 51°54' E 004°29'0 0.0
2017-Oct-10 15:58N 51°54' E 004°29'0 0.0
2017-Oct-10 15:28N 51°54' E 004°29'0 0.0
2017-Oct-10 14:58N 51°54' E 004°29'0 0.0
2017-Oct-10 13:58N 51°54' E 004°29'0 0.0
2017-Oct-10 13:28N 51°54' E 004°29'0 0.0
2017-Oct-10 12:58N 51°54' E 004°29'0 0.0
2017-Oct-10 12:28N 51°54' E 004°29'0 0.0
2017-Oct-10 11:58N 51°54' E 004°29'0 0.0
2017-Oct-10 11:28N 51°54' E 004°29'0 0.0
2017-Oct-10 10:58N 51°54' E 004°29'0 0.0
2017-Oct-10 10:28N 51°54' E 004°29'0 0.0
2017-Oct-10 09:58N 51°54' E 004°29'0 0.0
2017-Oct-10 09:28N 51°54' E 004°29'0 0.0
2017-Oct-10 08:58N 51°54' E 004°29'0 0.0
2017-Oct-10 08:28N 51°54' E 004°29'0 0.0
2017-Oct-10 07:58N 51°54' E 004°29'0 0.0
2017-Oct-10 07:28N 51°54' E 004°29'0 0.0
2017-Oct-10 06:58N 51°54' E 004°29'0 0.0
2017-Oct-10 06:28N 51°54' E 004°29'0 0.0
2017-Oct-10 05:58N 51°54' E 004°29'0 0.0
2017-Oct-10 05:28N 51°54' E 004°29'0 0.0
2017-Oct-10 04:58N 51°54' E 004°29'0 0.0
2017-Oct-10 04:28N 51°54' E 004°29'0 0.0
2017-Oct-10 03:58N 51°54' E 004°29'0 0.0
2017-Oct-10 03:28N 51°54' E 004°29'0 0.0
2017-Oct-10 02:58N 51°54' E 004°29'0 0.0
2017-Oct-10 02:28N 51°54' E 004°29'0 0.0
2017-Oct-10 01:58N 51°54' E 004°29'0 0.0
2017-Oct-10 01:28N 51°54' E 004°29'0 0.0
2017-Oct-10 00:58N 51°54' E 004°29'0 0.0
2017-Oct-10 00:28N 51°54' E 004°29'0 0.0
2017-Oct-09 23:58N 51°54' E 004°29'0 0.0
2017-Oct-09 23:28N 51°54' E 004°29'0 0.0
2017-Oct-09 22:58N 51°54' E 004°29'0 0.0
2017-Oct-09 22:28N 51°54' E 004°29'0 0.0
2017-Oct-09 21:58N 51°54' E 004°29'0 0.0
2017-Oct-09 21:28N 51°54' E 004°29'0 0.0
2017-Oct-09 20:58N 51°54' E 004°29'0 0.0
2017-Oct-09 20:28N 51°54' E 004°29'0 0.0
2017-Oct-09 19:58N 51°54' E 004°29'0 0.0
2017-Oct-09 19:28N 51°54' E 004°29'0 0.0
2017-Oct-09 18:58N 51°54' E 004°29'0 0.0
2017-Oct-09 18:28N 51°54' E 004°29'0 0.0
2017-Oct-09 17:58N 51°54' E 004°29'0 0.0
2017-Oct-09 17:28N 51°54' E 004°29'0 0.0
2017-Oct-09 16:58N 51°54' E 004°29'0 0.0
2017-Oct-09 16:28N 51°54' E 004°29'0 0.0
2017-Oct-09 15:58N 51°54' E 004°29'0 0.0
2017-Oct-09 15:28N 51°54' E 004°29'0 0.0
2017-Oct-09 14:58N 51°54' E 004°29'0 0.0
2017-Oct-09 14:28N 51°54' E 004°29'0 0.0
2017-Oct-09 13:58N 51°54' E 004°29'0 0.0
2017-Oct-09 13:28N 51°54' E 004°29'0 0.0
2017-Oct-09 12:58N 51°54' E 004°29'0 0.0
2017-Oct-09 12:28N 51°54' E 004°29'0 0.0
2017-Oct-09 11:58N 51°54' E 004°29'0 0.0
2017-Oct-09 11:28N 51°54' E 004°29'0 0.0
2017-Oct-09 10:58N 51°54' E 004°29'0 0.0
2017-Oct-09 10:28N 51°54' E 004°29'0 0.0
2017-Oct-09 09:58N 51°54' E 004°29'0 0.0
2017-Oct-09 09:31N 51°54' E 004°29'0 0.0
2017-Oct-09 08:58N 51°54' E 004°29'0 0.0
2017-Oct-09 08:31N 51°54' E 004°29'0 0.0
2017-Oct-09 08:01N 51°54' E 004°29'0 0.0
2017-Oct-09 07:30N 51°54' E 004°29'0 0.0
2017-Oct-09 07:00N 51°54' E 004°29'0 0.0
2017-Oct-09 06:30N 51°54' E 004°29'0 0.0
2017-Oct-09 06:00N 51°54' E 004°29'0 0.0
2017-Oct-09 05:30N 51°54' E 004°29'0 0.0
2017-Oct-09 05:00N 51°54' E 004°29'0 0.0
2017-Oct-09 04:30N 51°54' E 004°29'0 0.0
2017-Oct-09 04:00N 51°54' E 004°29'0 0.0
2017-Oct-09 03:30N 51°54' E 004°29'0 0.0
2017-Oct-09 03:00N 51°54' E 004°29'0 0.0
2017-Oct-09 02:30N 51°54' E 004°29'0 0.0
2017-Oct-09 02:00N 51°54' E 004°29'0 0.0
2017-Oct-09 01:30N 51°54' E 004°29'0 0.0
2017-Oct-09 01:00N 51°54' E 004°29'0 0.0
2017-Oct-09 00:30N 51°54' E 004°29'0 0.0
2017-Oct-09 00:00N 51°54' E 004°29'0 0.0
2017-Oct-08 23:30N 51°54' E 004°29'0 0.0
2017-Oct-08 23:00N 51°54' E 004°29'0 0.0
2017-Oct-08 22:30N 51°54' E 004°29'0 0.0
2017-Oct-08 22:00N 51°54' E 004°29'0 0.0
2017-Oct-08 21:30N 51°54' E 004°29'0 0.0
2017-Oct-08 21:00N 51°54' E 004°29'0 0.0
2017-Oct-08 20:30N 51°54' E 004°29'0 0.0
2017-Oct-08 20:00N 51°54' E 004°29'0 0.0
2017-Oct-08 19:30N 51°54' E 004°29'0 0.0
2017-Oct-08 19:00N 51°54' E 004°29'0 0.0
2017-Oct-08 18:30N 51°54' E 004°29'0 0.0
2017-Oct-08 18:00N 51°54' E 004°29'0 0.0
2017-Oct-08 17:30N 51°54' E 004°29'0 0.0
2017-Oct-08 17:00N 51°54' E 004°29'0 0.0
2017-Oct-08 16:30N 51°54' E 004°29'0 0.0
2017-Oct-08 16:00N 51°54' E 004°29'0 0.0
2017-Oct-08 15:30N 51°54' E 004°29'0 0.0
2017-Oct-08 15:00N 51°54' E 004°29'0 0.0
2017-Oct-08 14:30N 51°54' E 004°29'0 0.0
2017-Oct-08 14:00N 51°54' E 004°29'0 0.0
2017-Oct-08 13:30N 51°54' E 004°29'0 0.0
2017-Oct-08 13:00N 51°54' E 004°29'0 0.0
2017-Oct-08 12:30N 51°54' E 004°29'0 0.0
2017-Oct-08 12:00N 51°54' E 004°29'0 0.0
2017-Oct-08 11:30N 51°54' E 004°29'0 0.0
2017-Oct-08 11:00N 51°54' E 004°29'0 0.0
2017-Oct-08 10:30N 51°54' E 004°29'0 0.0
2017-Oct-08 10:00N 51°54' E 004°29'0 0.0
2017-Oct-08 09:30N 51°54' E 004°29'0 0.0
2017-Oct-08 09:00N 51°54' E 004°29'0 0.0
2017-Oct-08 08:30N 51°54' E 004°29'0 0.0
2017-Oct-08 08:00N 51°54' E 004°29'0 0.0
2017-Oct-08 07:30N 51°54' E 004°29'0 0.0
2017-Oct-08 07:00N 51°54' E 004°29'0 0.0
2017-Oct-08 06:30N 51°54' E 004°29'0 0.0
2017-Oct-08 06:00N 51°54' E 004°29'0 0.0
2017-Oct-08 05:30N 51°54' E 004°29'0 0.0
2017-Oct-08 05:00N 51°54' E 004°29'0 0.0
2017-Oct-08 04:30N 51°54' E 004°29'0 0.0
2017-Oct-08 04:00N 51°54' E 004°29'0 0.0
2017-Oct-08 03:30N 51°54' E 004°29'0 0.0
2017-Oct-08 03:00N 51°54' E 004°29'0 0.0
2017-Oct-08 02:30N 51°54' E 004°29'0 0.0
2017-Oct-08 02:00N 51°54' E 004°29'0 0.0
2017-Oct-08 01:30N 51°54' E 004°29'0 0.0
2017-Oct-08 01:00N 51°54' E 004°29'0 0.0
2017-Oct-08 00:30N 51°54' E 004°29'0 0.0
2017-Oct-08 00:00N 51°54' E 004°29'0 0.0
2017-Oct-07 23:30N 51°54' E 004°29'0 0.0
2017-Oct-07 23:00N 51°54' E 004°29'0 0.0
2017-Oct-07 22:30N 51°54' E 004°29'0 0.0
2017-Oct-07 22:00N 51°54' E 004°29'0 0.0
2017-Oct-07 21:30N 51°54' E 004°29'0 0.0
2017-Oct-07 21:00N 51°54' E 004°29'0 0.0
2017-Oct-07 20:30N 51°54' E 004°29'0 0.0
2017-Oct-07 20:00N 51°54' E 004°29'0 0.0
2017-Oct-07 19:27N 51°54' E 004°29'0 0.0
2017-Oct-07 19:00N 51°54' E 004°29'0 0.0
2017-Oct-07 18:30N 51°54' E 004°29'0 0.0
2017-Oct-07 18:00N 51°54' E 004°29'0 0.0
2017-Oct-07 17:29N 51°54' E 004°29'0 0.0
2017-Oct-07 16:59N 51°54' E 004°29'0 0.0
2017-Oct-07 16:29N 51°54' E 004°29'0 0.0
2017-Oct-07 15:59N 51°54' E 004°29'0 0.0
2017-Oct-07 15:29N 51°54' E 004°29'0 0.0
2017-Oct-07 14:59N 51°54' E 004°29'0 0.0
2017-Oct-07 14:29N 51°54' E 004°29'0 0.0
2017-Oct-07 13:59N 51°54' E 004°29'0 0.0
2017-Oct-07 13:29N 51°54' E 004°29'0 0.0
2017-Oct-07 12:59N 51°54' E 004°29'0 0.0
2017-Oct-07 12:29N 51°54' E 004°29'0 0.0
2017-Oct-07 11:59N 51°54' E 004°29'0 0.0
2017-Oct-07 11:29N 51°54' E 004°29'0 0.0
2017-Oct-07 10:59N 51°54' E 004°29'0 0.0
2017-Oct-07 10:29N 51°54' E 004°29'0 0.0
2017-Oct-07 09:59N 51°54' E 004°29'0 0.0
2017-Oct-07 09:29N 51°54' E 004°29'0 0.0
2017-Oct-07 08:59N 51°54' E 004°29'0 0.0
2017-Oct-07 08:29N 51°54' E 004°29'0 0.0
2017-Oct-07 07:59N 51°54' E 004°29'0 0.0
2017-Oct-07 07:29N 51°54' E 004°29'0 0.0
2017-Oct-07 06:59N 51°54' E 004°29'  

Dump ship's entire track history